Time;durP1;ratioP1;P1;durP2;ratioP2;P2;SDS_P1;SDS_P2;PMS_P1;PMS_P2;Temp;Humidity;BMP_temperature;BMP_pressure;BME280_temperature;BME280_humidity;BME280_pressure;Samples;Min_cycle;Max_cycle;Signal;HPM_P1;HPM_P2
2021/06/02 00:04:08;;;;;;;10.70;4.10;;;;;;;;;;5028359;28;20683;-81
2021/06/02 00:06:36;;;;;;;11.53;4.60;;;;;;;;;;5028061;28;20212;-84
2021/06/02 00:09:04;;;;;;;7.57;4.40;;;;;;;;;;5031645;28;20208;-82
2021/06/02 00:11:32;;;;;;;11.17;4.20;;;;;;;;;;5028036;28;20307;-84
2021/06/02 00:13:59;;;;;;;9.30;4.43;;;;;;;;;;5031262;28;20240;-83
2021/06/02 00:16:25;;;;;;;7.37;3.50;;;;;;;;;;5029510;28;20200;-82
2021/06/02 00:18:53;;;;;;;8.33;4.13;;;;;;;;;;5029927;28;20230;-82
2021/06/02 00:21:19;;;;;;;8.90;3.90;;;;;;;;;;5026187;28;20578;-82
2021/06/02 00:23:46;;;;;;;6.90;3.83;;;;;;;;;;5031510;28;20247;-82
2021/06/02 00:26:13;;;;;;;8.27;4.20;;;;;;;;;;5029863;28;20291;-81
2021/06/02 00:28:41;;;;;;;8.73;3.97;;;;;;;;;;5030526;28;20207;-82
2021/06/02 00:31:08;;;;;;;12.63;3.97;;;;;;;;;;5030267;28;20310;-83
2021/06/02 00:33:35;;;;;;;10.97;4.70;;;;;;;;;;5028688;28;20741;-81
2021/06/02 00:36:03;;;;;;;7.93;4.23;;;;;;;;;;5034313;28;21406;-83
2021/06/02 00:38:29;;;;;;;7.63;4.30;;;;;;;;;;5034463;28;20265;-83
2021/06/02 00:40:56;;;;;;;20.60;4.60;;;;;;;;;;5035483;28;20215;-80
2021/06/02 00:43:23;;;;;;;9.97;4.37;;;;;;;;;;5034138;28;20228;-84
2021/06/02 00:45:51;;;;;;;8.10;3.97;;;;;;;;;;5034397;28;20246;-82
2021/06/02 00:48:21;;;;;;;6.73;4.07;;;;;;;;;;5033418;28;20220;-81
2021/06/02 00:50:48;;;;;;;13.37;4.53;;;;;;;;;;5032267;28;20216;-84
2021/06/02 00:53:16;;;;;;;9.00;4.50;;;;;;;;;;5033003;28;20227;-84
2021/06/02 00:55:44;;;;;;;7.03;4.37;;;;;;;;;;5033224;28;20236;-82
2021/06/02 00:58:13;;;;;;;6.80;4.27;;;;;;;;;;5035495;28;20585;-82
2021/06/02 01:00:40;;;;;;;7.83;4.20;;;;;;;;;;5035128;28;20212;-82
2021/06/02 01:03:09;;;;;;;8.93;4.03;;;;;;;;;;5032220;28;20227;-81
2021/06/02 01:05:36;;;;;;;8.93;4.90;;;;;;;;;;5032799;28;20204;-83
2021/06/02 01:08:04;;;;;;;9.03;4.50;;;;;;;;;;5032116;28;20236;-80
2021/06/02 01:10:31;;;;;;;9.03;4.70;;;;;;;;;;5031609;28;20270;-80
2021/06/02 01:12:58;;;;;;;7.37;4.40;;;;;;;;;;5036342;28;20239;-83
2021/06/02 01:15:25;;;;;;;14.93;4.60;;;;;;;;;;5033301;28;20204;-81
2021/06/02 01:17:52;;;;;;;9.30;4.17;;;;;;;;;;5034183;28;20223;-83
2021/06/02 01:20:20;;;;;;;9.20;4.23;;;;;;;;;;5033562;28;20210;-84
2021/06/02 01:22:48;;;;;;;6.83;4.10;;;;;;;;;;5032773;28;20247;-82
2021/06/02 01:25:17;;;;;;;6.80;4.10;;;;;;;;;;5033491;28;20273;-83
2021/06/02 01:27:44;;;;;;;10.83;4.63;;;;;;;;;;5034546;28;20235;-81
2021/06/02 01:30:12;;;;;;;10.73;4.10;;;;;;;;;;5028005;28;20359;-82
2021/06/02 01:32:46;;;;;;;10.40;4.57;;;;;;;;;;5042990;28;20231;-80
2021/06/02 01:35:24;;;;;;;10.00;4.33;;;;;;;;;;5050928;28;20188;-79
2021/06/02 01:38:09;;;;;;;8.70;4.40;;;;;;;;;;5045615;28;20193;-82
2021/06/02 01:40:52;;;;;;;9.07;4.67;;;;;;;;;;5037436;28;20248;-82
2021/06/02 01:43:27;;;;;;;13.97;4.33;;;;;;;;;;5031988;28;20223;-81
2021/06/02 01:46:03;;;;;;;8.60;4.00;;;;;;;;;;5035554;28;20206;-82
2021/06/02 01:48:32;;;;;;;7.87;4.43;;;;;;;;;;5034980;28;20234;-82
2021/06/02 01:51:18;;;;;;;6.70;4.40;;;;;;;;;;5033302;28;20770;-82
2021/06/02 01:53:48;;;;;;;11.07;4.70;;;;;;;;;;5036181;28;20220;-83
2021/06/02 01:56:41;;;;;;;6.27;4.17;;;;;;;;;;5036246;28;20207;-83
2021/06/02 01:59:23;;;;;;;10.57;4.70;;;;;;;;;;5034815;28;20208;-83
2021/06/02 02:02:05;;;;;;;6.90;4.27;;;;;;;;;;4999715;28;20211;-83
2021/06/02 02:04:47;;;;;;;9.27;4.63;;;;;;;;;;5034090;28;20230;-83
2021/06/02 02:07:26;;;;;;;10.90;4.40;;;;;;;;;;5035106;28;20208;-80
2021/06/02 02:10:05;;;;;;;7.77;4.23;;;;;;;;;;5029693;28;20610;-83
2021/06/02 02:12:45;;;;;;;7.63;4.30;;;;;;;;;;5022891;28;20258;-83
2021/06/02 02:15:21;;;;;;;7.13;4.27;;;;;;;;;;5021855;28;20199;-83
2021/06/02 02:17:59;;;;;;;12.27;4.23;;;;;;;;;;5025389;28;20211;-83
2021/06/02 02:20:32;;;;;;;7.53;4.50;;;;;;;;;;5021515;28;20211;-83
2021/06/02 02:23:15;;;;;;;9.37;4.43;;;;;;;;;;5024675;28;20263;-83
2021/06/02 02:25:48;;;;;;;8.27;4.67;;;;;;;;;;5025003;28;20593;-82
2021/06/02 02:28:22;;;;;;;8.73;4.60;;;;;;;;;;5028495;28;20215;-82
2021/06/02 02:30:53;;;;;;;12.23;4.17;;;;;;;;;;5022862;28;20311;-80
2021/06/02 02:33:26;;;;;;;13.97;4.50;;;;;;;;;;5030569;28;20244;-83
2021/06/02 02:35:58;;;;;;;8.83;4.03;;;;;;;;;;5027819;28;20329;-82
2021/06/02 02:38:36;;;;;;;7.60;4.37;;;;;;;;;;5029728;28;20200;-82
2021/06/02 02:41:07;;;;;;;13.63;5.03;;;;;;;;;;5033168;28;20680;-83
2021/06/02 02:43:40;;;;;;;10.30;4.27;;;;;;;;;;5031518;28;20258;-83
2021/06/02 02:46:11;;;;;;;12.13;4.73;;;;;;;;;;5024462;28;20699;-82
2021/06/02 02:48:44;;;;;;;12.07;4.53;;;;;;;;;;5023701;28;20296;-82
2021/06/02 02:51:18;;;;;;;7.93;4.50;;;;;;;;;;5027011;28;20212;-81
2021/06/02 02:53:46;;;;;;;9.33;4.27;;;;;;;;;;5029828;28;20263;-83
2021/06/02 02:56:16;;;;;;;10.27;4.20;;;;;;;;;;5031696;28;20208;-81
2021/06/02 02:58:47;;;;;;;10.07;4.80;;;;;;;;;;5033654;28;20740;-82
2021/06/02 03:01:16;;;;;;;10.77;4.13;;;;;;;;;;5032692;28;20235;-82
2021/06/02 03:03:45;;;;;;;8.43;4.63;;;;;;;;;;5035923;28;20300;-81
2021/06/02 03:06:14;;;;;;;8.37;4.40;;;;;;;;;;5032121;28;20219;-83
2021/06/02 03:08:42;;;;;;;12.47;4.40;;;;;;;;;;5030888;28;20240;-81
2021/06/02 03:11:12;;;;;;;12.43;4.57;;;;;;;;;;5034007;28;20241;-82
2021/06/02 03:13:44;;;;;;;8.43;4.53;;;;;;;;;;5038347;28;20237;-81
2021/06/02 03:16:14;;;;;;;12.57;4.53;;;;;;;;;;5049732;28;20180;-80
2021/06/02 03:18:44;;;;;;;11.73;4.83;;;;;;;;;;5049656;28;20188;-79
2021/06/02 03:21:18;;;;;;;9.40;4.33;;;;;;;;;;5031129;28;20207;-83
2021/06/02 03:24:02;;;;;;;9.90;4.60;;;;;;;;;;5032714;28;20224;-83
2021/06/02 03:26:30;;;;;;;8.97;4.43;;;;;;;;;;5032278;28;20215;-83
2021/06/02 03:29:01;;;;;;;12.20;4.57;;;;;;;;;;5034631;28;20218;-83
2021/06/02 03:31:33;;;;;;;11.27;4.97;;;;;;;;;;5030521;28;21130;-83
2021/06/02 03:34:10;;;;;;;8.30;4.43;;;;;;;;;;5031055;28;20239;-83
2021/06/02 03:36:43;;;;;;;10.87;4.67;;;;;;;;;;5033790;28;20219;-84
2021/06/02 03:39:14;;;;;;;9.60;4.20;;;;;;;;;;5031393;28;20524;-83
2021/06/02 03:41:53;;;;;;;8.83;4.20;;;;;;;;;;5032122;28;20200;-83
2021/06/02 03:44:25;;;;;;;9.60;4.57;;;;;;;;;;5029132;28;20227;-82
2021/06/02 03:47:01;;;;;;;7.00;4.47;;;;;;;;;;5030936;28;20207;-84
2021/06/02 03:49:33;;;;;;;9.37;4.77;;;;;;;;;;5028583;28;20690;-83
2021/06/02 03:52:04;;;;;;;10.93;4.50;;;;;;;;;;5032637;28;20242;-84
2021/06/02 03:54:34;;;;;;;10.97;4.40;;;;;;;;;;5032646;28;20231;-83
2021/06/02 03:57:13;;;;;;;9.47;3.87;;;;;;;;;;5032607;28;20199;-83
2021/06/02 03:59:42;;;;;;;5.93;3.97;;;;;;;;;;5030562;28;20226;-84
2021/06/02 04:02:21;;;;;;;5.93;3.83;;;;;;;;;;5030418;28;20616;-84
2021/06/02 04:04:55;;;;;;;11.03;4.13;;;;;;;;;;5033416;28;20263;-82
2021/06/02 04:07:26;;;;;;;8.53;4.10;;;;;;;;;;5032789;28;20196;-84
2021/06/02 04:09:55;;;;;;;5.60;3.90;;;;;;;;;;5033134;28;20677;-84
2021/06/02 04:12:25;;;;;;;9.17;4.13;;;;;;;;;;5029059;28;20224;-84
2021/06/02 04:14:54;;;;;;;10.13;4.10;;;;;;;;;;5038340;28;20214;-84
2021/06/02 04:17:24;;;;;;;9.30;3.83;;;11.50;99.90;;;;;;5032596;28;20673;-85
2021/06/02 04:19:51;;;;;;;9.17;4.27;;;15.40;99.90;;;;;;5028967;28;20212;-85
2021/06/02 04:22:19;;;;;;;8.37;3.87;;;15.40;99.90;;;;;;5027660;28;20563;-84
2021/06/02 04:24:48;;;;;;;5.33;3.40;;;15.70;99.90;;;;;;5027943;28;20231;-83
2021/06/02 04:27:17;;;;;;;6.17;3.43;;;15.90;99.90;;;;;;5025706;28;20211;-82
2021/06/02 04:29:47;;;;;;;7.10;3.83;;;16.20;99.90;;;;;;5025336;28;20222;-84
2021/06/02 04:32:14;;;;;;;7.67;3.30;;;16.70;99.90;;;;;;5025155;28;21706;-82
2021/06/02 04:34:43;;;;;;;9.37;3.40;;;17.00;99.90;;;;;;5030228;28;21067;-83
2021/06/02 04:37:11;;;;;;;9.60;3.33;;;16.40;99.90;;;;;;5030716;28;20207;-84
2021/06/02 04:39:40;;;;;;;5.97;3.80;;;15.50;99.90;;;;;;5029009;28;20222;-85
2021/06/02 04:42:09;;;;;;;9.53;3.87;;;14.40;99.90;;;;;;5029482;28;20211;-84
2021/06/02 04:44:37;;;;;;;10.13;4.37;;;13.50;99.90;;;;;;5030204;28;20251;-84
2021/06/02 04:47:04;;;;;;;6.93;4.27;;;;;;;;;;5027084;28;20629;-84
2021/06/02 04:49:36;;;;;;;12.90;4.03;;;;;;;;;;5027772;28;20230;-84
2021/06/02 04:52:26;;;;;;;10.63;4.10;;;;;;;;;;5029681;28;20234;-85
2021/06/02 04:55:07;;;;;;;11.97;3.90;;;;;;;;;;5027740;28;20724;-84
2021/06/02 04:57:52;;;;;;;9.70;3.70;;;;;;;;;;5040409;28;20207;-83
2021/06/02 05:00:43;;;;;;;6.87;3.80;;;12.90;99.90;;;;;;5048920;28;20203;-82
2021/06/02 05:03:35;;;;;;;8.40;3.73;;;14.40;99.90;;;;;;5032662;28;20607;-85
2021/06/02 05:06:50;;;;;;;8.80;3.60;;;15.30;99.90;;;;;;5034389;28;20207;-85
2021/06/02 05:09:44;;;;;;;9.03;4.00;;;16.10;99.90;;;;;;5032774;28;20284;-85
2021/06/02 05:12:56;;;;;;;8.20;4.00;;;16.50;99.90;;;;;;4994276;28;20262;-85
2021/06/02 05:15:59;;;;;;;9.00;3.47;;;17.30;99.90;;;;;;5027061;28;20200;-85
2021/06/02 05:18:45;;;;;;;7.13;3.40;;;19.60;99.90;;;;;;5027990;28;20290;-85
2021/06/02 05:25:11;;;;;;;7.80;3.60;;;21.20;99.90;;;;;;5029660;28;20253;-85
2021/06/02 05:28:20;;;;;;;5.33;3.53;;;20.80;99.90;;;;;;5030235;28;20219;-85
2021/06/02 05:31:23;;;;;;;8.03;4.03;;;21.30;99.90;;;;;;5029088;28;20232;-84
2021/06/02 05:34:55;;;;;;;8.83;3.33;;;22.50;99.90;;;;;;5032083;28;20739;-84
2021/06/02 05:37:55;;;;;;;10.97;3.67;;;22.70;99.90;;;;;;5033683;28;20223;-83
2021/06/02 05:40:46;;;;;;;15.77;4.23;;;23.50;99.90;;;;;;4992077;28;20285;-86
2021/06/02 05:43:48;;;;;;;11.00;3.90;;;23.70;99.90;;;;;;5026389;28;20730;-85
2021/06/02 05:46:49;;;;;;;25.83;4.40;;;22.80;99.90;;;;;;5025345;28;20655;-85
2021/06/02 05:49:51;;;;;;;9.80;3.90;;;23.50;99.90;;;;;;5022071;28;20261;-85
2021/06/02 05:52:44;;;;;;;15.80;4.00;;;24.00;99.90;;;;;;5023781;28;20231;-85
2021/06/02 05:55:41;;;;;;;14.57;3.90;;;24.20;99.90;;;;;;5023097;28;20303;-84
2021/06/02 05:58:40;;;;;;;14.33;3.57;;;25.40;99.90;;;;;;5026211;28;20219;-84
2021/06/02 06:01:43;;;;;;;13.60;3.70;;;25.80;99.90;;;;;;5023557;28;20276;-85
2021/06/02 06:04:54;;;;;;;11.17;3.70;;;24.80;99.90;;;;;;5024175;28;20857;-85
2021/06/02 06:08:01;;;;;;;11.93;3.53;;;24.60;99.90;;;;;;5022179;28;20205;-84
2021/06/02 06:10:48;;;;;;;9.27;3.50;;;24.60;99.90;;;;;;5024340;28;20687;-86
2021/06/02 06:13:39;;;;;;;9.43;3.20;;;24.90;99.90;;;;;;5025282;28;20240;-85
2021/06/02 06:16:35;;;;;;;6.67;3.30;;;25.80;99.90;;;;;;5018916;28;20281;-85
2021/06/02 06:19:41;;;;;;;7.87;3.10;;;26.80;99.90;;;;;;5026315;28;20198;-85
2021/06/02 06:22:45;;;;;;;4.83;2.97;;;27.70;99.90;;;;;;5011917;28;20236;-85
2021/06/02 06:25:16;;;;;;;5.27;3.13;;;27.30;99.90;;;;;;5022326;28;20212;-84
2021/06/02 06:27:49;;;;;;;10.83;3.10;;;26.90;99.90;;;;;;5022899;28;20321;-85
2021/06/02 06:30:24;;;;;;;6.40;2.97;;;26.80;99.90;;;;;;5019843;28;20242;-85
2021/06/02 06:32:54;;;;;;;7.50;3.20;;;26.60;99.90;;;;;;5018979;28;20234;-85
2021/06/02 06:35:22;;;;;;;10.93;3.27;;;26.30;99.90;;;;;;5023690;28;20301;-85
2021/06/02 06:37:50;;;;;;;7.50;3.60;;;26.30;99.90;;;;;;5028825;28;20196;-84
2021/06/02 06:40:21;;;;;;;8.77;3.33;;;26.90;99.90;;;;;;5033693;28;20207;-84
2021/06/02 06:42:52;;;;;;;11.33;3.30;;;27.70;99.90;;;;;;5047601;28;20208;-83
2021/06/02 06:45:20;;;;;;;5.25;2.83;;;28.20;99.90;;;;;;5048153;28;20222;-83
2021/06/02 06:47:49;;;;;;;8.10;3.27;;;28.80;99.90;;;;;;5035878;28;20639;-85
2021/06/02 06:50:17;;;;;;;5.75;3.03;;;;;;;;;;5022748;28;20215;-85
2021/06/02 06:52:48;;;;;;;5.63;3.45;;;;;;;;;;5026950;28;20255;-85
2021/06/02 06:55:15;;;;;;;8.60;3.15;;;;;;;;;;5023686;28;20681;-85
2021/06/02 06:57:42;;;;;;;4.47;2.88;;;;;;;;;;5024349;28;20210;-85
2021/06/02 07:00:12;;;;;;;5.60;3.38;;;28.50;99.90;;;;;;5022100;28;20201;-84
2021/06/02 07:02:40;;;;;;;6.85;3.08;;;30.50;98.90;;;;;;5027639;28;20333;-84
2021/06/02 07:05:08;;;;;;;8.93;3.15;;;30.80;99.30;;;;;;5021476;28;20295;-85
2021/06/02 07:07:35;;;;;;;11.65;3.03;;;30.80;98.70;;;;;;5028903;28;20212;-85
2021/06/02 07:10:04;;;;;;;7.13;3.00;;;30.70;98.70;;;;;;5023022;28;20677;-85
2021/06/02 07:12:32;;;;;;;11.32;3.30;;;32.10;97.10;;;;;;5025350;28;20227;-85
2021/06/02 07:15:01;;;;;;;6.95;3.05;;;32.80;94.40;;;;;;5023752;28;20661;-84
2021/06/02 07:17:29;;;;;;;7.25;3.05;;;33.00;93.90;;;;;;5020719;28;20219;-85
2021/06/02 07:20:00;;;;;;;5.75;3.03;;;33.70;92.90;;;;;;5022301;28;20207;-84
2021/06/02 07:22:27;;;;;;;7.78;3.47;;;34.20;92.20;;;;;;5022501;28;20699;-84
2021/06/02 07:24:54;;;;;;;8.02;3.00;;;34.30;90.70;;;;;;5029050;28;20273;-84
2021/06/02 07:27:22;;;;;;;5.15;2.75;;;33.60;90.20;;;;;;5027446;28;20694;-84
2021/06/02 07:29:48;;;;;;;9.63;2.97;;;33.90;90.20;;;;;;5027745;28;20203;-84
2021/06/02 07:32:15;;;;;;;5.30;2.58;;;33.80;88.50;;;;;;5028171;28;20215;-84
2021/06/02 07:34:43;;;;;;;4.22;2.70;;;34.10;86.20;;;;;;5028849;28;20443;-84
2021/06/02 07:37:10;;;;;;;4.82;2.40;;;34.40;84.60;;;;;;5021478;28;20207;-84
2021/06/02 07:39:37;;;;;;;7.10;2.50;;;34.60;82.80;;;;;;5025299;28;20329;-85
2021/06/02 07:42:05;;;;;;;7.63;2.47;;;34.50;81.40;;;;;;5024170;28;20266;-85
2021/06/02 07:44:32;;;;;;;9.18;2.58;;;34.20;82.10;;;;;;5024330;28;20215;-84
2021/06/02 07:46:58;;;;;;;4.82;2.75;;;33.90;82.20;;;;;;5027923;28;20273;-85
2021/06/02 07:49:25;;;;;;;7.50;2.63;;;33.80;81.70;;;;;;5027063;28;20212;-84
2021/06/02 07:51:53;;;;;;;5.50;2.50;;;34.50;81.80;;;;;;5029409;28;20215;-84
2021/06/02 07:54:20;;;;;;;6.30;2.22;;;35.00;80.10;;;;;;5026347;28;20270;-85
2021/06/02 07:56:48;;;;;;;3.60;2.60;;;35.70;78.60;;;;;;5026800;28;20570;-83
2021/06/02 07:59:14;;;;;;;8.40;2.58;;;35.90;76.80;;;;;;5025803;28;20199;-83
2021/06/02 08:01:41;;;;;;;5.13;2.65;;;34.80;77.10;;;;;;5026550;28;20252;-84
2021/06/02 08:04:07;;;;;;;5.88;2.45;;;34.20;79.00;;;;;;5025959;28;20277;-83
2021/06/02 08:06:34;;;;;;;3.40;2.30;;;35.10;77.70;;;;;;5027074;28;20261;-82
2021/06/02 08:09:02;;;;;;;5.13;2.45;;;35.20;76.70;;;;;;5024841;28;20203;-82
2021/06/02 08:11:29;;;;;;;5.70;2.67;;;35.00;74.70;;;;;;5031452;28;20204;-83
2021/06/02 08:13:55;;;;;;;4.10;2.35;;;34.90;75.50;;;;;;5027889;28;20231;-82
2021/06/02 08:16:21;;;;;;;4.30;2.28;;;34.80;76.30;;;;;;5024736;28;20197;-85
2021/06/02 08:18:48;;;;;;;2.85;2.05;;;34.70;74.60;;;;;;5021841;28;20306;-85
2021/06/02 08:21:14;;;;;;;5.15;2.55;;;34.30;77.00;;;;;;5024688;28;20708;-84
2021/06/02 08:23:41;;;;;;;4.13;2.53;;;34.40;75.40;;;;;;5045945;28;20215;-82
2021/06/02 08:26:09;;;;;;;6.93;2.40;;;34.90;75.00;;;;;;5052315;28;20192;-84
2021/06/02 08:28:36;;;;;;;10.85;2.45;;;35.20;74.30;;;;;;5053170;28;20208;-86
2021/06/02 08:31:03;;;;;;;6.15;2.08;;;35.80;72.50;;;;;;5026787;28;20259;-84
2021/06/02 08:33:30;;;;;;;9.70;2.25;;;36.30;72.10;;;;;;5028909;28;20736;-84
2021/06/02 08:35:56;;;;;;;6.43;2.50;;;35.20;73.40;;;;;;5023099;28;20202;-86
2021/06/02 08:38:23;;;;;;;7.40;2.40;;;35.40;73.60;;;;;;5023835;28;20196;-85
2021/06/02 08:40:50;;;;;;;5.85;2.45;;;34.90;71.60;;;;;;5027525;28;20215;-86
2021/06/02 08:43:21;;;;;;;7.43;2.30;;;34.20;73.80;;;;;;5027388;28;20224;-83
2021/06/02 08:45:47;;;;;;;7.85;2.40;;;34.70;73.10;;;;;;5022750;28;20578;-85
2021/06/02 08:48:14;;;;;;;5.57;2.25;;;34.70;74.30;;;;;;5026021;28;20819;-84
2021/06/02 08:50:41;;;;;;;7.03;2.13;;;35.10;75.00;;;;;;5021120;28;20245;-83
2021/06/02 08:53:08;;;;;;;4.75;2.20;;;35.10;74.40;;;;;;5023815;28;20228;-83
2021/06/02 08:55:36;;;;;;;5.93;2.10;;;34.90;72.90;;;;;;5023498;28;20217;-83
2021/06/02 08:58:03;;;;;;;3.65;2.13;;;34.80;73.90;;;;;;5028607;28;20205;-82
2021/06/02 09:00:31;;;;;;;3.13;2.00;;;34.80;72.20;;;;;;5027517;28;20206;-86
2021/06/02 09:02:57;;;;;;;6.90;2.10;;;34.90;73.40;;;;;;5020811;28;20243;-83
2021/06/02 09:05:25;;;;;;;2.63;1.92;;;34.80;73.00;;;;;;5029791;28;20675;-83
2021/06/02 09:07:54;;;;;;;4.57;2.30;;;34.30;74.10;;;;;;5031913;28;20770;-83
2021/06/02 09:10:21;;;;;;;6.35;2.03;;;33.10;73.70;;;;;;5029942;28;20215;-83
2021/06/02 09:12:54;;;;;;;4.07;2.28;;;31.80;74.50;;;;;;5033809;28;20269;-83
2021/06/02 09:15:20;;;;;;;4.72;2.33;;;30.50;79.00;;;;;;5034422;28;20298;-83
2021/06/02 09:17:50;;;;;;;5.27;2.13;;;29.20;75.40;;;;;;5035904;28;20211;-83
2021/06/02 09:20:32;;;;;;;3.93;2.23;;;27.90;75.00;;;;;;5034889;28;20213;-83
2021/06/02 09:23:00;;;;;;;2.77;2.20;;;27.40;82.10;;;;;;5038350;28;20585;-82
2021/06/02 09:25:27;;;;;;;4.17;2.00;;;27.00;85.00;;;;;;5041068;28;21092;-83
2021/06/02 09:27:56;;;;;;;5.17;2.10;;;26.70;82.10;;;;;;5037556;28;20211;-82
2021/06/02 09:30:25;;;;;;;3.83;2.47;;;26.50;84.50;;;;;;5037459;28;20215;-84
2021/06/02 09:32:55;;;;;;;3.77;2.13;;;26.50;83.70;;;;;;5038922;28;20293;-83
2021/06/02 09:35:33;;;;;;;5.70;2.30;;;26.30;80.70;;;;;;5037047;28;20614;-83
2021/06/02 09:38:00;;;;;;;3.37;2.00;;;26.10;81.60;;;;;;5040917;28;20556;-82
2021/06/02 09:40:32;;;;;;;4.53;2.10;;;25.40;81.30;;;;;;5033812;28;20232;-83
2021/06/02 09:42:59;;;;;;;4.93;2.33;;;25.10;83.30;;;;;;5040660;28;20257;-82
2021/06/02 09:45:25;;;;;;;8.07;2.27;;;25.10;83.00;;;;;;5034431;28;20211;-84
2021/06/02 09:47:55;;;;;;;3.07;2.00;;;25.20;81.30;;;;;;5025466;28;20267;-81
2021/06/02 09:50:28;;;;;;;4.90;1.80;;;25.20;80.40;;;;;;5031702;28;20564;-83
2021/06/02 09:52:55;;;;;;;5.77;2.27;;;25.20;79.70;;;;;;5022206;28;20359;-84
2021/06/02 09:55:25;;;;;;;3.00;1.87;;;25.20;79.70;;;;;;5029506;28;20648;-84
2021/06/02 09:58:09;;;;;;;3.83;1.90;;;24.90;82.10;;;;;;5030331;28;20304;-83
2021/06/02 10:00:37;;;;;;;6.53;2.10;;;25.10;84.90;;;;;;5026439;28;20560;-82
2021/06/02 10:03:09;;;;;;;3.20;2.10;;;24.90;81.10;;;;;;5041752;28;20244;-81
2021/06/02 10:05:37;;;;;;;4.50;2.00;;;25.00;82.90;;;;;;5050148;28;20206;-81
2021/06/02 10:08:04;;;;;;;2.73;1.80;;;25.20;82.30;;;;;;5045868;28;20203;-83
2021/06/02 10:10:32;;;;;;;3.37;1.90;;;25.10;80.10;;;;;;5033312;28;20215;-82
2021/06/02 10:13:01;;;;;;;3.13;1.87;;;25.30;82.10;;;;;;5035660;28;20597;-84
2021/06/02 10:15:30;;;;;;;2.43;1.70;;;25.50;80.40;;;;;;5035505;28;20223;-82
2021/06/02 10:17:57;;;;;;;7.23;2.40;;;25.60;84.40;;;;;;5035288;28;20257;-82
2021/06/02 10:20:25;;;;;;;8.40;2.20;;;25.80;83.30;;;;;;5034728;28;20732;-83
2021/06/02 10:22:56;;;;;;;3.80;2.03;;;25.70;83.90;;;;;;5032531;28;20695;-82
2021/06/02 10:25:24;;;;;;;3.77;1.90;;;25.70;82.30;;;;;;5037086;28;20212;-84
2021/06/02 10:27:54;;;;;;;2.83;2.00;;;26.00;83.30;;;;;;5039924;28;20269;-84
2021/06/02 10:30:22;;;;;;;2.87;2.17;;;26.00;82.70;;;;;;5038176;28;20215;-84
2021/06/02 10:32:49;;;;;;;6.47;2.20;;;25.90;86.10;;;;;;5037804;28;20304;-84
2021/06/02 10:35:16;;;;;;;2.67;2.20;;;25.80;84.80;;;;;;5042698;28;20207;-83
2021/06/02 10:37:45;;;;;;;2.70;2.00;;;25.80;84.30;;;;;;5038292;28;20275;-82
2021/06/02 10:40:16;;;;;;;4.20;1.80;;;25.80;83.80;;;;;;5030600;28;20215;-82
2021/06/02 10:42:50;;;;;;;1.90;1.70;;;25.70;85.80;;;;;;5037430;28;20379;-85
2021/06/02 10:45:21;;;;;;;3.13;1.97;;;25.80;85.20;;;;;;5036456;28;20211;-83
2021/06/02 10:47:56;;;;;;;7.03;2.00;;;26.00;86.80;;;;;;5038641;28;20215;-83
2021/06/02 10:50:34;;;;;;;6.07;2.10;;;25.90;81.70;;;;;;5031918;28;20710;-82
2021/06/02 10:53:20;;;;;;;4.20;1.80;;;25.80;82.30;;;;;;5033583;28;20263;-82
2021/06/02 10:55:47;;;;;;;3.03;2.13;;;25.90;85.90;;;;;;5034275;28;20214;-84
2021/06/02 10:58:24;;;;;;;5.20;2.13;;;26.00;86.20;;;;;;5041834;28;20211;-84
2021/06/02 11:00:53;;;;;;;2.80;1.90;;;25.60;84.30;;;;;;5037004;28;20208;-83
2021/06/02 11:03:21;;;;;;;5.53;2.00;;;25.80;85.70;;;;;;5036081;28;20227;-83
2021/06/02 11:05:57;;;;;;;3.07;2.00;;;26.10;86.60;;;;;;5038408;28;20247;-84
2021/06/02 11:09:04;;;;;;;4.10;2.20;;;26.10;83.10;;;;;;5040004;28;20230;-83
2021/06/02 11:11:33;;;;;;;4.60;2.10;;;25.90;80.80;;;;;;5034117;28;20259;-82
2021/06/02 11:14:23;;;;;;;7.07;1.93;;;25.60;80.70;;;;;;5034637;28;21133;-82
2021/06/02 11:16:53;;;;;;;4.33;1.80;;;25.50;85.20;;;;;;5037693;28;20218;-82
2021/06/02 11:19:22;;;;;;;3.40;2.00;;;25.50;84.60;;;;;;5032962;28;20211;-84
2021/06/02 11:22:07;;;;;;;7.27;2.17;;;25.60;82.00;;;;;;5035143;28;20534;-84
2021/06/02 11:24:42;;;;;;;3.27;2.10;;;25.80;89.10;;;;;;5034872;28;20227;-81
2021/06/02 11:27:42;;;;;;;4.90;2.10;;;26.00;83.70;;;;;;5031404;28;20218;-84
2021/06/02 11:30:21;;;;;;;3.57;1.97;;;25.80;81.70;;;;;;4952412;29;20211;-82
2021/06/02 11:32:56;;;;;;;2.83;2.33;;;25.90;84.70;;;;;;4951993;29;20217;-83
2021/06/02 11:35:54;;;;;;;5.13;2.13;;;25.90;85.50;;;;;;4995203;28;20219;-83
2021/06/02 11:38:20;;;;;;;9.23;2.23;;;26.20;89.00;;;;;;5027648;28;20230;-84
2021/06/02 11:40:49;;;;;;;2.90;1.93;;;26.00;81.60;;;;;;5041968;28;20195;-82
2021/06/02 11:43:16;;;;;;;2.83;2.00;;;25.80;84.00;;;;;;5047408;28;20220;-81
2021/06/02 11:45:43;;;;;;;2.20;1.80;;;25.80;86.10;;;;;;5045612;28;20203;-84
2021/06/02 11:48:12;;;;;;;5.03;1.80;;;25.90;80.20;;;;;;5039443;28;20219;-84
2021/06/02 11:50:38;;;;;;;2.60;1.80;;;25.70;81.80;;;;;;5034819;28;20600;-83
2021/06/02 11:53:06;;;;;;;4.00;1.97;;;25.70;82.90;;;;;;5036719;28;20227;-83
2021/06/02 11:55:33;;;;;;;5.70;2.03;;;25.80;85.40;;;;;;5034064;28;20211;-83
2021/06/02 11:58:02;;;;;;;2.93;2.20;;;25.80;83.30;;;;;;5037306;28;20208;-84
2021/06/02 12:00:33;;;;;;;3.23;2.17;;;25.60;85.10;;;;;;5035316;28;20215;-83
2021/06/02 12:03:01;;;;;;;2.87;1.90;;;25.70;87.00;;;;;;5036853;28;20271;-83
2021/06/02 12:05:29;;;;;;;2.37;1.90;;;25.90;87.30;;;;;;5038204;28;20226;-82
2021/06/02 12:07:59;;;;;;;4.93;2.40;;;25.90;85.00;;;;;;5038699;28;20211;-84
2021/06/02 12:10:28;;;;;;;5.60;2.20;;;26.10;85.50;;;;;;5036382;28;20311;-82
2021/06/02 12:12:55;;;;;;;5.60;2.30;;;26.10;83.70;;;;;;5034089;28;20238;-82
2021/06/02 12:15:25;;;;;;;6.33;2.40;;;25.90;83.10;;;;;;5036946;28;20246;-83
2021/06/02 12:17:52;;;;;;;12.17;2.37;;;25.60;84.50;;;;;;5035089;28;20213;-82
2021/06/02 12:20:21;;;;;;;2.90;2.00;;;25.50;85.60;;;;;;5029380;28;20694;-83
2021/06/02 12:22:48;;;;;;;4.67;2.17;;;25.70;85.00;;;;;;5028425;28;20236;-82
2021/06/02 12:25:16;;;;;;;3.33;1.83;;;25.60;83.40;;;;;;5031569;28;20302;-83
2021/06/02 12:27:45;;;;;;;8.27;2.23;;;25.50;84.00;;;;;;5029998;28;20294;-83
2021/06/02 12:30:15;;;;;;;3.60;2.30;;;25.70;86.50;;;;;;5026974;28;20209;-82
2021/06/02 12:32:49;;;;;;;3.67;2.07;;;26.00;84.20;;;;;;5026592;28;20234;-83
2021/06/02 12:35:40;;;;;;;2.87;2.07;;;26.10;86.40;;;;;;5030951;28;20803;-85
2021/06/02 12:38:11;;;;;;;5.93;1.83;;;26.10;86.50;;;;;;5018735;28;20216;-84
2021/06/02 12:40:40;;;;;;;3.97;1.80;;;26.00;81.60;;;;;;5035046;28;20238;-82
2021/06/02 12:43:14;;;;;;;4.50;1.90;;;25.80;82.20;;;;;;5037642;28;20254;-84
2021/06/02 12:45:40;;;;;;;3.60;1.80;;;25.90;85.00;;;;;;5039073;28;20691;-83
2021/06/02 12:48:09;;;;;;;2.83;1.87;;;25.90;83.20;;;;;;5039835;28;20204;-84
2021/06/02 12:50:41;;;;;;;3.87;2.30;;;25.90;83.50;;;;;;5038053;28;20208;-84
2021/06/02 12:53:09;;;;;;;5.53;2.00;;;26.00;83.50;;;;;;5037486;28;20223;-85
2021/06/02 12:55:37;;;;;;;3.23;1.90;;;26.10;83.50;;;;;;5037639;28;20701;-83
2021/06/02 12:58:05;;;;;;;6.93;2.10;;;26.10;83.60;;;;;;5037798;28;20219;-83
2021/06/02 13:00:32;;;;;;;4.00;2.20;;;26.00;84.20;;;;;;5037192;28;20208;-84
2021/06/02 13:02:59;;;;;;;3.17;2.00;;;26.10;85.00;;;;;;5041356;28;20242;-85
2021/06/02 13:05:28;;;;;;;6.00;2.13;;;26.00;82.50;;;;;;5036954;28;20223;-84
2021/06/02 13:08:04;;;;;;;2.67;1.70;;;26.20;82.90;;;;;;5037102;28;20810;-85
2021/06/02 13:10:32;;;;;;;2.60;1.80;;;26.30;81.10;;;;;;5033552;28;20218;-83
2021/06/02 13:13:00;;;;;;;3.07;1.80;;;26.20;81.60;;;;;;5035692;28;20235;-84
2021/06/02 13:15:29;;;;;;;2.23;1.60;;;25.90;81.90;;;;;;5034725;28;20431;-83
2021/06/02 13:17:57;;;;;;;5.57;2.37;;;25.70;81.60;;;;;;5051288;28;20180;-82
2021/06/02 13:20:38;;;;;;;6.67;2.10;;;25.70;82.00;;;;;;5053253;28;20183;-82
2021/06/02 13:23:15;;;;;;;2.10;1.70;;;25.90;83.60;;;;;;5042441;28;20617;-84
2021/06/02 13:25:42;;;;;;;3.27;2.10;;;26.00;81.40;;;;;;5029418;28;20750;-83
2021/06/02 13:28:09;;;;;;;2.97;1.47;;;26.10;82.10;;;;;;5028967;28;20219;-84
2021/06/02 13:30:41;;;;;;;5.93;1.70;;;26.20;84.20;;;;;;5033103;28;20211;-83
2021/06/02 13:33:08;;;;;;;3.50;1.97;;;26.40;85.30;;;;;;5030113;28;20228;-82
2021/06/02 13:35:37;;;;;;;3.57;1.67;;;26.40;82.70;;;;;;5036316;28;20304;-84
2021/06/02 13:38:04;;;;;;;4.37;1.90;;;26.50;81.20;;;;;;5033327;28;20238;-83
2021/06/02 13:40:33;;;;;;;5.93;2.80;;;26.50;82.50;;;;;;5034713;28;20720;-84
2021/06/02 13:43:08;;;;;;;4.27;2.00;;;26.50;82.80;;;;;;5034431;28;20231;-84
2021/06/02 13:45:49;;;;;;;3.30;1.90;;;26.70;81.40;;;;;;5036251;28;20676;-83
2021/06/02 13:48:32;;;;;;;4.67;2.43;;;26.40;82.90;;;;;;5036744;28;20211;-84
2021/06/02 13:51:12;;;;;;;3.53;2.20;;;26.40;82.80;;;;;;5034387;28;20219;-83
2021/06/02 13:54:17;;;;;;;3.93;2.10;;;26.30;82.60;;;;;;5035655;28;20231;-82
2021/06/02 13:57:06;;;;;;;5.07;2.40;;;26.30;83.40;;;;;;5038493;28;20215;-84
2021/06/02 13:59:44;;;;;;;4.23;2.00;;;26.10;83.20;;;;;;5034992;28;20214;-82